Time;durP1;ratioP1;P1;durP2;ratioP2;P2;SDS_P1;SDS_P2;PMS_P1;PMS_P2;Temp;Humidity;BMP_temperature;BMP_pressure;BME280_temperature;BME280_humidity;BME280_pressure;Samples;Min_cycle;Max_cycle;Signal;HPM_P1;HPM_P2
2022/06/21 00:01:10;;;;;;;3.42;3.13;;;;;;;;;;5072031;28;20498;-88
2022/06/21 00:03:36;;;;;;;3.60;3.30;;;;;;;;;;5055308;28;20385;-87
2022/06/21 00:06:02;;;;;;;3.53;3.23;;;;;;;;;;5071097;28;20372;-89
2022/06/21 00:08:29;;;;;;;3.40;3.10;;;;;;;;;;5072464;28;20431;-88
2022/06/21 00:10:56;;;;;;;3.55;3.22;;;;;;;;;;5070824;28;20927;-89
2022/06/21 00:13:24;;;;;;;3.70;3.35;;;;;;;;;;5072122;28;20380;-88
2022/06/21 00:15:51;;;;;;;4.30;3.53;;;;;;;;;;5072120;28;20384;-89
2022/06/21 00:18:20;;;;;;;3.70;3.40;;;;;;;;;;5067601;28;20457;-88
2022/06/21 00:20:46;;;;;;;3.58;3.28;;;;;;;;;;5062791;28;20526;-88
2022/06/21 00:23:13;;;;;;;4.70;3.30;;;;;;;;;;5072056;28;20861;-88
2022/06/21 00:25:39;;;;;;;3.73;3.20;;;;;;;;;;5071051;28;20453;-88
2022/06/21 00:28:05;;;;;;;3.30;3.10;;;;;;;;;;5075649;28;20384;-89
2022/06/21 00:30:31;;;;;;;3.30;3.10;;;;;;;;;;5074844;28;20379;-87
2022/06/21 00:32:57;;;;;;;3.72;3.42;;;;;;;;;;5075473;28;20376;-88
2022/06/21 00:35:25;;;;;;;4.50;3.25;;;;;;;;;;5075710;28;20384;-88
2022/06/21 00:37:52;;;;;;;3.65;3.35;;;;;;;;;;5075663;28;20841;-88
2022/06/21 00:40:20;;;;;;;3.83;3.53;;;;;;;;;;5075193;28;20466;-88
2022/06/21 00:42:48;;;;;;;3.70;3.40;;;;;;;;;;5075465;28;20864;-88
2022/06/21 00:45:17;;;;;;;5.32;3.38;;;;;;;;;;5075626;28;20391;-87
2022/06/21 00:47:51;;;;;;;3.70;3.40;;;;;;;;;;5075447;28;20443;-88
2022/06/21 00:50:26;;;;;;;3.73;3.40;;;;;;;;;;5075302;28;20389;-89
2022/06/21 00:52:58;;;;;;;3.45;3.25;;;;;;;;;;5073548;28;20472;-88
2022/06/21 00:55:43;;;;;;;3.45;3.22;;;;;;;;;;5066152;28;20413;-88
2022/06/21 00:58:13;;;;;;;3.80;3.50;;;;;;;;;;5074888;28;20377;-88
2022/06/21 01:00:39;;;;;;;3.90;3.60;;;;;;;;;;5074655;28;20894;-88
2022/06/21 01:03:08;;;;;;;3.70;3.40;;;;;;;;;;5075390;28;20402;-88
2022/06/21 01:05:36;;;;;;;3.70;3.40;;;;;;;;;;5076384;28;20426;-88
2022/06/21 01:08:03;;;;;;;4.15;3.55;;;;;;;;;;5075427;28;20429;-88
2022/06/21 01:10:29;;;;;;;3.83;3.53;;;;;;;;;;5074111;28;20384;-88
2022/06/21 01:12:57;;;;;;;3.97;3.58;;;;;;;;;;5076335;28;20514;-88
2022/06/21 01:15:35;;;;;;;3.88;3.47;;;;;;;;;;5075964;28;20470;-88
2022/06/21 01:18:02;;;;;;;3.80;3.50;;;;;;;;;;5073464;28;20391;-88
2022/06/21 01:20:31;;;;;;;3.80;3.55;;;;;;;;;;5066031;28;20374;-88
2022/06/21 01:23:06;;;;;;;3.80;3.50;;;;;;;;;;5069224;28;20388;-88
2022/06/21 01:25:50;;;;;;;3.87;3.57;;;;;;;;;;5074454;28;20402;-88
2022/06/21 01:28:17;;;;;;;3.70;3.40;;;;;;;;;;5074063;28;20489;-88
2022/06/21 01:30:48;;;;;;;3.58;3.28;;;;;;;;;;5073181;28;20934;-88
2022/06/21 01:33:15;;;;;;;3.70;3.40;;;;;;;;;;5074139;28;20872;-88
2022/06/21 01:35:43;;;;;;;3.58;3.38;;;;;;;;;;5074099;28;20382;-88
2022/06/21 01:38:13;;;;;;;4.78;3.35;;;;;;;;;;5073000;28;20395;-88
2022/06/21 01:40:44;;;;;;;4.03;3.63;;;;;;;;;;5074296;28;20387;-88
2022/06/21 01:43:12;;;;;;;3.67;3.38;;;;;;;;;;5073987;28;20390;-86
2022/06/21 01:45:41;;;;;;;3.70;3.50;;;;;;;;;;5073815;28;20386;-88
2022/06/21 01:48:12;;;;;;;4.18;3.75;;;;;;;;;;5072896;28;20888;-87
2022/06/21 01:50:39;;;;;;;4.30;3.90;;;;;;;;;;5073826;28;20397;-88
2022/06/21 01:53:07;;;;;;;4.70;3.90;;;;;;;;;;5074306;28;20837;-89
2022/06/21 01:55:35;;;;;;;3.90;3.60;;;;;;;;;;5065088;28;20452;-88
2022/06/21 01:58:02;;;;;;;4.00;3.70;;;;;;;;;;5066323;28;20407;-87
2022/06/21 02:00:31;;;;;;;3.93;3.53;;;;;;;;;;5059579;28;20398;-88
2022/06/21 02:03:00;;;;;;;3.83;3.53;;;;;;;;;;5072194;28;20368;-88
2022/06/21 02:05:28;;;;;;;3.78;3.47;;;;;;;;;;5068087;28;20417;-87
2022/06/21 02:07:56;;;;;;;3.80;3.50;;;;;;;;;;5071447;28;20380;-88
2022/06/21 02:10:25;;;;;;;3.60;3.27;;;;;;;;;;5073378;28;20380;-88
2022/06/21 02:12:53;;;;;;;3.92;3.63;;;;;;;;;;5073142;28;20380;-87
2022/06/21 02:15:23;;;;;;;3.70;3.40;;;;;;;;;;5073351;28;20446;-88
2022/06/21 02:17:49;;;;;;;3.78;3.47;;;;;;;;;;5073068;28;20469;-88
2022/06/21 02:20:32;;;;;;;4.10;3.80;;;;;;;;;;5073707;28;20396;-88
2022/06/21 02:22:58;;;;;;;3.93;3.63;;;;;;;;;;5056894;28;20527;-88
2022/06/21 02:25:25;;;;;;;4.07;3.70;;;;;;;;;;5058175;28;20465;-86
2022/06/21 02:27:53;;;;;;;3.83;3.60;;;;;;;;;;5066726;28;20411;-88
2022/06/21 02:30:24;;;;;;;3.88;3.58;;;;;;;;;;5071166;28;20371;-88
2022/06/21 02:32:52;;;;;;;4.23;3.83;;;;;;;;;;5059630;28;20388;-88
2022/06/21 02:35:35;;;;;;;4.10;3.80;;;;;;;;;;5071579;28;20409;-88
2022/06/21 02:38:02;;;;;;;3.83;3.50;;;;;;;;;;5073140;28;20510;-88
2022/06/21 02:40:33;;;;;;;4.20;3.80;;;;;;;;;;5068123;28;20385;-88
2022/06/21 02:43:02;;;;;;;4.38;3.90;;;;;;;;;;5065005;28;20399;-87
2022/06/21 02:45:38;;;;;;;4.28;3.50;;;;;;;;;;5072915;28;20458;-88
2022/06/21 02:48:09;;;;;;;3.72;3.42;;;;;;;;;;5072478;28;20372;-87
2022/06/21 02:50:38;;;;;;;3.83;3.53;;;;;;;;;;5072985;28;20386;-88
2022/06/21 02:53:15;;;;;;;3.75;3.45;;;;;;;;;;5071515;28;20390;-88
2022/06/21 02:55:44;;;;;;;4.40;4.00;;;;;;;;;;5063985;28;20380;-88
2022/06/21 02:58:28;;;;;;;4.07;3.78;;;;;;;;;;5073017;28;20391;-88
2022/06/21 03:00:55;;;;;;;4.28;3.90;;;;;;;;;;5072376;28;20415;-89
2022/06/21 03:03:23;;;;;;;4.13;3.72;;;;;;;;;;5072586;28;20387;-88
2022/06/21 03:05:51;;;;;;;3.90;3.60;;;;;;;;;;5072602;28;20384;-88
2022/06/21 03:08:17;;;;;;;4.13;3.83;;;;;;;;;;5071353;28;20379;-88
2022/06/21 03:10:46;;;;;;;4.43;3.85;;;;;;;;;;5072608;28;20396;-88
2022/06/21 03:13:18;;;;;;;3.92;3.63;;;;;;;;;;5072754;28;20376;-88
2022/06/21 03:15:46;;;;;;;3.70;3.40;;;;;;;;;;5072546;28;20399;-89
2022/06/21 03:18:16;;;;;;;4.40;4.00;;;;;;;;;;5071468;28;20475;-88
2022/06/21 03:20:43;;;;;;;4.03;3.72;;;;;;;;;;5062120;28;20487;-88
2022/06/21 03:23:10;;;;;;;4.78;4.15;;;;;;;;;;5068247;28;20382;-87
2022/06/21 03:25:44;;;;;;;4.22;3.92;;;;;;;;;;5072551;28;20383;-88
2022/06/21 03:28:21;;;;;;;4.53;4.13;;;;;;;;;;5072920;28;20386;-88
2022/06/21 03:30:48;;;;;;;4.40;4.00;;;;;;;;;;5072420;28;20383;-88
2022/06/21 03:33:14;;;;;;;4.80;4.40;;;;;;;;;;5072408;28;20380;-88
2022/06/21 03:35:40;;;;;;;4.85;4.50;;;;;;;;;;5072480;28;20906;-88
2022/06/21 03:38:06;;;;;;;5.50;5.10;;;;;;;;;;5072468;28;20414;-88
2022/06/21 03:43:25;;;;;;;4.50;4.20;;;;;;;;;;5066621;28;20733;-87
2022/06/21 03:45:52;;;;;;;4.93;4.53;;;;;;;;;;5072722;28;20402;-87
2022/06/21 03:48:34;;;;;;;4.70;4.40;;;;;;;;;;5072055;28;20418;-87
2022/06/21 03:51:03;;;;;;;5.28;4.78;;;;;;;;;;5071096;28;20722;-87
2022/06/21 03:53:34;;;;;;;5.30;4.90;;;;;;;;;;5058198;28;20385;-89
2022/06/21 03:56:00;;;;;;;5.95;4.85;;;;;;;;;;5063761;28;20390;-88
2022/06/21 03:58:38;;;;;;;5.43;4.97;;;;;;;;;;5072850;28;20447;-88
2022/06/21 04:01:13;;;;;;;5.03;4.63;;;;;;;;;;5075765;28;20414;-88
2022/06/21 04:03:46;;;;;;;5.73;5.33;;;;;;;;;;5076085;28;20382;-87
2022/06/21 04:06:32;;;;;;;5.45;5.05;;;;;;;;;;5063849;28;20451;-88
2022/06/21 04:09:04;;;;;;;5.50;5.10;;;;;;;;;;5075021;28;20426;-88
2022/06/21 04:11:36;;;;;;;5.55;5.15;;;;;;;;;;5075500;28;20411;-87
2022/06/21 04:14:08;;;;;;;7.10;6.50;;;;;;;;;;5069299;28;20467;-87
2022/06/21 04:16:39;;;;;;;7.20;6.60;;;;;;;;;;5075607;28;20386;-87
2022/06/21 04:19:05;;;;;;;6.45;5.97;;;;;;;;;;5075860;28;20411;-88
2022/06/21 04:21:37;;;;;;;7.28;6.68;;;;;;;;;;5062434;28;20413;-88
2022/06/21 04:24:11;;;;;;;7.13;6.53;;;;;;;;;;5065682;28;20375;-88
2022/06/21 04:26:45;;;;;;;6.95;6.35;;;;;;;;;;5073231;28;20391;-88
2022/06/21 04:29:15;;;;;;;5.90;5.40;;;;;;;;;;5075424;28;20372;-88
2022/06/21 04:31:45;;;;;;;5.13;4.67;;;;;;;;;;5075958;28;20383;-88
2022/06/21 04:34:17;;;;;;;4.70;4.33;;;;;;;;;;5075699;28;20376;-88
2022/06/21 04:36:48;;;;;;;4.10;3.80;;;;;;;;;;5072106;28;20442;-88
2022/06/21 04:39:34;;;;;;;4.57;4.28;;;;;;;;;;5075656;28;20384;-88
2022/06/21 04:42:00;;;;;;;5.10;4.80;;;;;;;;;;5075460;28;20490;-88
2022/06/21 04:44:26;;;;;;;5.50;5.05;;;;;;;;;;5075697;28;20416;-87
2022/06/21 04:47:06;;;;;;;4.93;4.50;;;;;;;;;;5075140;28;20410;-88
2022/06/21 04:49:38;;;;;;;4.68;4.30;;;;;;;;;;5075481;28;20411;-89
2022/06/21 04:52:39;;;;;;;5.90;5.40;;;;;;;;;;5071387;28;20474;-86
2022/06/21 04:55:06;;;;;;;5.70;5.20;;;;;;;;;;5076196;28;20391;-88
2022/06/21 04:57:33;;;;;;;5.82;5.38;;;;;;;;;;5066167;28;20423;-88
2022/06/21 05:00:02;;;;;;;5.93;5.43;;;;;;;;;;5072182;28;20453;-87
2022/06/21 05:02:29;;;;;;;6.25;5.80;;;;;;;;;;5062388;28;20422;-88
2022/06/21 05:04:58;;;;;;;6.40;5.85;;;;;;;;;;5075465;28;20383;-87
2022/06/21 05:07:26;;;;;;;5.75;5.25;;;;;;;;;;5076794;28;20410;-87
2022/06/21 05:09:54;;;;;;;5.63;5.18;;;;;;;;;;5074894;28;20380;-88
2022/06/21 05:12:28;;;;;;;5.03;4.60;;;;;;;;;;5073882;28;20416;-88
2022/06/21 05:14:57;;;;;;;4.47;4.07;;;;;;;;;;5074775;28;20382;-89
2022/06/21 05:17:23;;;;;;;4.55;4.15;;;;;;;;;;5074646;28;20380;-87
2022/06/21 05:19:57;;;;;;;3.60;3.30;;;;;;;;;;5074977;28;20403;-88
2022/06/21 05:22:31;;;;;;;3.38;3.08;;;;;;;;;;5072917;28;20443;-88
2022/06/21 05:24:58;;;;;;;3.40;2.53;;;;;;;;;;5068458;28;20387;-84
2022/06/21 05:27:39;;;;;;;2.97;2.35;;;;;;;;;;5060102;28;20381;-84
2022/06/21 05:30:08;;;;;;;2.47;2.28;;;;;;;;;;5062711;28;20379;-86
2022/06/21 05:32:39;;;;;;;2.40;2.20;;;;;;;;;;5054610;28;20832;-87
2022/06/21 05:35:16;;;;;;;2.40;2.10;;;;;;;;;;5058697;28;20865;-87
2022/06/21 05:37:50;;;;;;;2.08;1.80;;;;;;;;;;5055129;28;20515;-87
2022/06/21 05:40:37;;;;;;;2.23;1.90;;;;;;;;;;5053447;28;20392;-87
2022/06/21 05:43:03;;;;;;;1.90;1.80;;;;;;;;;;5063335;28;20384;-85
2022/06/21 05:45:35;;;;;;;2.70;2.15;;;;;;;;;;5057539;28;20368;-84
2022/06/21 05:48:12;;;;;;;3.85;1.85;;;;;;;;;;5053130;28;20739;-87
2022/06/21 05:50:38;;;;;;;2.08;1.70;;;;;;;;;;5056038;28;20377;-86
2022/06/21 05:53:24;;;;;;;3.13;2.00;;;;;;;;;;5064764;28;20446;-86
2022/06/21 05:55:50;;;;;;;2.53;1.90;;;;;;;;;;5062941;28;20372;-86
2022/06/21 05:58:27;;;;;;;3.30;2.03;;;;;;;;;;5074132;28;20404;-87
2022/06/21 06:01:02;;;;;;;3.10;2.10;;;;;;;;;;5073981;28;20411;-85
2022/06/21 06:03:37;;;;;;;2.30;2.10;;;;;;;;;;5074126;28;20380;-84
2022/06/21 06:06:08;;;;;;;2.08;1.88;;;;;;;;;;5073545;28;20487;-86
2022/06/21 06:08:37;;;;;;;2.25;1.98;;;;;;;;;;5074973;28;20376;-86
2022/06/21 06:11:05;;;;;;;1.80;1.70;;;;;;;;;;5075059;28;20427;-86
2022/06/21 06:13:36;;;;;;;2.13;1.73;;;;;;;;;;5070276;28;20381;-87
2022/06/21 06:16:04;;;;;;;2.20;2.00;;;;;;;;;;5071892;28;20376;-87
2022/06/21 06:18:30;;;;;;;3.35;1.80;;;;;;;;;;5061214;28;20376;-85
2022/06/21 06:21:02;;;;;;;2.55;1.98;;;;;;;;;;5073987;28;20469;-88
2022/06/21 06:23:46;;;;;;;3.57;2.10;;;;;;;;;;5058539;28;20437;-87
2022/06/21 06:26:18;;;;;;;3.20;1.55;;;;;;;;;;5060030;28;20405;-87
2022/06/21 06:28:47;;;;;;;2.33;1.98;;;;;;;;;;5059893;28;20380;-87
2022/06/21 06:31:13;;;;;;;1.77;1.50;;;;;;;;;;5072887;28;20458;-86
2022/06/21 06:33:44;;;;;;;2.30;1.70;;;;;;;;;;5073215;28;20412;-86
2022/06/21 06:36:14;;;;;;;3.07;1.90;;;;;;;;;;5062280;28;20700;-86
2022/06/21 06:38:41;;;;;;;2.10;1.90;;;;;;;;;;5060759;28;20384;-86
2022/06/21 06:41:17;;;;;;;3.42;1.98;;;;;;;;;;5063467;28;21017;-86
2022/06/21 06:43:52;;;;;;;3.33;2.10;;;;;;;;;;5072639;28;20384;-86
2022/06/21 06:46:28;;;;;;;2.03;1.83;;;;;;;;;;5073010;28;20382;-86
2022/06/21 06:48:57;;;;;;;4.43;2.10;;;;;;;;;;5068463;28;20373;-85
2022/06/21 06:51:29;;;;;;;2.10;1.60;;;;;;;;;;5063736;28;20884;-84
2022/06/21 06:53:55;;;;;;;4.00;2.00;;;;;;;;;;5072563;28;20841;-86
2022/06/21 06:56:27;;;;;;;2.60;1.87;;;;;;;;;;5064421;28;20506;-84
2022/06/21 06:58:59;;;;;;;2.72;1.85;;;;;;;;;;5058952;28;20389;-85
2022/06/21 07:01:39;;;;;;;4.28;2.50;;;;;;;;;;5057252;28;20409;-85
2022/06/21 07:04:07;;;;;;;5.10;1.85;;;;;;;;;;5058165;28;20392;-85
2022/06/21 07:06:39;;;;;;;4.40;1.97;;;;;;;;;;5062888;28;20453;-85
2022/06/21 07:09:14;;;;;;;2.33;2.00;;;;;;;;;;5059223;28;20492;-86
2022/06/21 07:11:41;;;;;;;2.92;1.70;;;;;;;;;;5058926;28;20412;-85
2022/06/21 07:14:19;;;;;;;2.55;2.13;;;;;;;;;;5073144;28;20379;-85
2022/06/21 07:16:45;;;;;;;3.35;2.00;;;;;;;;;;5073197;28;20430;-86
2022/06/21 07:19:11;;;;;;;3.80;2.10;;;;;;;;;;5071809;28;20384;-85
2022/06/21 07:21:38;;;;;;;2.38;1.70;;;;;;;;;;5067841;28;20445;-85
2022/06/21 07:24:13;;;;;;;6.40;2.00;;;;;;;;;;5054148;28;20480;-85
2022/06/21 07:26:42;;;;;;;3.75;2.08;;;;;;;;;;5054971;28;20380;-86
2022/06/21 07:29:19;;;;;;;4.07;2.22;;;;;;;;;;5072069;28;20407;-86
2022/06/21 07:31:51;;;;;;;2.70;1.67;;;;;;;;;;5072487;28;20386;-87
2022/06/21 07:34:23;;;;;;;3.10;2.10;;;;;;;;;;5074390;28;20383;-83
2022/06/21 07:36:49;;;;;;;3.25;2.03;;;;;;;;;;5076194;28;20380;-82
2022/06/21 07:39:32;;;;;;;3.75;2.40;;;;;;;;;;5076212;28;20387;-82
2022/06/21 07:42:19;;;;;;;3.08;2.22;;;;;;;;;;5076163;28;20399;-83
2022/06/21 07:44:48;;;;;;;2.40;2.00;;;;;;;;;;5075827;28;20392;-84
2022/06/21 07:47:17;;;;;;;3.13;1.98;;;;;;;;;;5076180;28;20437;-83
2022/06/21 07:49:47;;;;;;;3.90;2.70;;;;;;;;;;5076073;28;20376;-85
2022/06/21 07:52:22;;;;;;;4.10;2.45;;;;;;;;;;5073020;28;20382;-84
2022/06/21 07:54:53;;;;;;;4.00;2.22;;;;;;;;;;5058619;28;20496;-82
2022/06/21 07:57:20;;;;;;;3.13;1.88;;;;;;;;;;5059011;28;20875;-85
2022/06/21 07:59:50;;;;;;;4.53;2.17;;;;;;;;;;5075658;28;20387;-83
2022/06/21 08:07:52;;;;;;;2.70;1.90;;;;;;;;;;5068499;28;20382;-83
2022/06/21 08:10:20;;;;;;;2.38;2.08;;;;;;;;;;5076251;28;20368;-84
2022/06/21 08:12:48;;;;;;;4.05;2.25;;;;;;;;;;5065910;28;20519;-85
2022/06/21 08:15:14;;;;;;;3.88;2.20;;;;;;;;;;5069578;28;20440;-85
2022/06/21 08:17:43;;;;;;;3.58;2.00;;;;;;;;;;5066199;28;20447;-85
2022/06/21 08:20:23;;;;;;;3.85;2.42;;;;;;;;;;5075453;28;20398;-85
2022/06/21 08:22:58;;;;;;;3.08;2.50;;;;;;;;;;5067933;28;20431;-85
2022/06/21 08:25:47;;;;;;;2.75;2.42;;;;;;;;;;5075356;28;20380;-85
2022/06/21 08:28:13;;;;;;;6.28;2.72;;;;;;;;;;5075667;28;20398;-83
2022/06/21 08:30:52;;;;;;;3.58;2.67;;;;;;;;;;5075803;28;20376;-85
2022/06/21 08:33:28;;;;;;;4.05;2.42;;;;;;;;;;5072316;28;20459;-84
2022/06/21 08:36:00;;;;;;;4.45;2.88;;;;;;;;;;5075947;28;20398;-84
2022/06/21 08:38:33;;;;;;;3.00;2.70;;;;;;;;;;5075408;28;20396;-86
2022/06/21 08:44:35;;;;;;;3.13;2.70;;;;;;;;;;5075576;28;20421;-85
2022/06/21 08:47:19;;;;;;;3.17;2.67;;;;;;;;;;5074901;28;20398;-85
2022/06/21 08:50:03;;;;;;;5.95;3.33;;;;;;;;;;5075263;28;20864;-85
2022/06/21 08:52:45;;;;;;;3.65;2.80;;;;;;;;;;5075363;28;20372;-86
2022/06/21 08:55:28;;;;;;;4.47;3.08;;;;;;;;;;5066594;28;20377;-86
2022/06/21 08:58:16;;;;;;;4.25;3.17;;;;;;;;;;5075121;28;20379;-86
2022/06/21 09:00:51;;;;;;;6.97;3.13;;;;;;;;;;5074640;28;20407;-86
2022/06/21 09:03:33;;;;;;;4.18;3.00;;;;;;;;;;5074885;28;20384;-85
2022/06/21 09:06:14;;;;;;;4.07;3.10;;;;;;;;;;5074851;28;20916;-85
2022/06/21 09:08:43;;;;;;;4.80;2.60;;;;;;;;;;5075130;28;20411;-92
2022/06/21 09:11:28;;;;;;;3.40;2.50;;;;;;;;;;5073625;28;20451;-88
2022/06/21 09:13:54;;;;;;;5.68;2.95;;;;;;;;;;5075007;28;20441;-86
2022/06/21 09:16:39;;;;;;;5.15;2.97;;;;;;;;;;5075015;28;20380;-85
2022/06/21 09:19:11;;;;;;;5.03;2.67;;;;;;;;;;5075806;28;20409;-85
2022/06/21 09:21:37;;;;;;;5.43;2.72;;;;;;;;;;5063062;28;20490;-85
2022/06/21 09:24:15;;;;;;;3.80;2.50;;;;;;;;;;5066786;28;20384;-85
2022/06/21 09:26:50;;;;;;;4.30;3.10;;;;;;;;;;5062865;28;20412;-84
2022/06/21 09:29:26;;;;;;;3.80;3.38;;;;;;;;;;5055914;28;20868;-85
2022/06/21 09:32:07;;;;;;;3.97;3.30;;;;;;;;;;5069189;28;20379;-86
2022/06/21 09:34:52;;;;;;;4.22;3.05;;;;;;;;;;5065129;28;20784;-85
2022/06/21 09:37:30;;;;;;;3.42;2.88;;;;;;;;;;5073925;28;20437;-86
2022/06/21 09:40:09;;;;;;;5.00;3.65;;;;;;;;;;5071282;28;20376;-86
2022/06/21 09:42:35;;;;;;;4.83;3.00;;;;;;;;;;5071451;28;20406;-84
2022/06/21 09:45:27;;;;;;;3.53;2.73;;;;;;;;;;5073831;28;20467;-87
2022/06/21 09:48:02;;;;;;;3.92;2.80;;;;;;;;;;5073930;28;20416;-86
2022/06/21 09:50:37;;;;;;;5.70;2.50;;;;;;;;;;5071596;28;20421;-86
2022/06/21 09:53:14;;;;;;;3.90;2.85;;;;;;;;;;5071309;28;20383;-86
2022/06/21 09:55:49;;;;;;;4.60;3.08;;;;;;;;;;5067138;28;20471;-90
2022/06/21 09:58:22;;;;;;;6.00;2.78;;;;;;;;;;5071814;28;20471;-88
2022/06/21 10:00:53;;;;;;;4.82;2.70;;;;;;;;;;5067190;28;20776;-89
2022/06/21 10:03:36;;;;;;;4.53;3.08;;;;;;;;;;5064191;28;20388;-89
2022/06/21 10:06:02;;;;;;;4.43;2.75;;;;;;;;;;5059492;28;20462;-88
2022/06/21 10:08:50;;;;;;;4.35;3.05;;;;;;;;;;5074008;28;20390;-88
2022/06/21 10:11:21;;;;;;;3.15;2.63;;;;;;;;;;5073014;28;20380;-89
2022/06/21 10:13:51;;;;;;;5.72;2.72;;;;;;;;;;5073436;28;20380;-89
2022/06/21 10:16:26;;;;;;;7.70;3.00;;;;;;;;;;5059028;28;20410;-88
2022/06/21 10:18:55;;;;;;;3.60;2.97;;;;;;;;;;5065605;28;20401;-88
2022/06/21 10:21:30;;;;;;;3.50;2.60;;;;;;;;;;5069907;28;20407;-89
2022/06/21 10:24:14;;;;;;;4.20;2.83;;;;;;;;;;5070728;28;20455;-88
2022/06/21 10:26:50;;;;;;;3.25;2.78;;;;;;;;;;5069628;28;20431;-87
2022/06/21 10:29:22;;;;;;;3.25;2.80;;;;;;;;;;5073157;28;20399;-84
2022/06/21 10:31:51;;;;;;;4.27;2.53;;;;;;;;;;5072943;28;20388;-86
2022/06/21 10:34:26;;;;;;;4.00;2.85;;;;;;;;;;5067315;28;20384;-87
2022/06/21 10:36:52;;;;;;;4.13;2.90;;;;;;;;;;5067920;28;20398;-86
2022/06/21 10:39:37;;;;;;;4.45;2.88;;;;;;;;;;5062791;28;20384;-87
2022/06/21 10:45:23;;;;;;;4.03;3.50;;;;;;;;;;5064965;28;20367;-87
2022/06/21 10:47:54;;;;;;;4.20;3.40;;;;;;;;;;5068091;28;20394;-89
2022/06/21 10:50:27;;;;;;;5.00;4.00;;;;;;;;;;5072986;28;20411;-87
2022/06/21 10:53:02;;;;;;;4.30;3.90;;;;;;;;;;5073200;28;20471;-85
2022/06/21 10:55:34;;;;;;;4.65;3.95;;;;;;;;;;5063678;28;20397;-85
2022/06/21 10:58:09;;;;;;;4.40;3.50;;;;;;;;;;5071931;28;20387;-86
2022/06/21 11:03:35;;;;;;;3.78;3.47;;;;;;;;;;5075196;28;20379;-91
2022/06/21 11:06:01;;;;;;;5.57;3.90;;;;;;;;;;5065261;28;20393;-91
2022/06/21 11:08:35;;;;;;;3.97;3.67;;;;;;;;;;5058690;28;20391;-89
2022/06/21 11:11:15;;;;;;;4.20;3.80;;;;;;;;;;5061213;28;20389;-91
2022/06/21 11:13:45;;;;;;;5.85;3.60;;;;;;;;;;5062272;28;20401;-91
2022/06/21 11:16:14;;;;;;;4.65;3.70;;;;;;;;;;5072976;28;20372;-91
2022/06/21 11:18:43;;;;;;;4.70;4.20;;;;;;;;;;5065604;28;20421;-91
2022/06/21 11:21:15;;;;;;;4.63;4.10;;;;;;;;;;5066295;28;20411;-92
2022/06/21 11:23:41;;;;;;;4.75;3.70;;;;;;;;;;5060007;28;20849;-90
2022/06/21 11:26:25;;;;;;;5.68;4.18;;;;;;;;;;5073469;28;20372;-91
2022/06/21 11:28:54;;;;;;;6.15;5.28;;;;;;;;;;5073589;28;20359;-90
2022/06/21 11:31:21;;;;;;;5.90;5.40;;;;;;;;;;5073466;28;20425;-91
2022/06/21 11:34:05;;;;;;;7.03;6.18;;;;;;;;;;5071628;28;20570;-92
2022/06/21 11:36:45;;;;;;;4.85;4.15;;;;;;;;;;5067715;28;20380;-90
2022/06/21 11:39:20;;;;;;;5.07;3.75;;;;;;;;;;5073348;28;20384;-91
2022/06/21 11:42:04;;;;;;;4.40;4.00;;;;;;;;;;5072914;28;20399;-90
2022/06/21 11:44:30;;;;;;;4.18;3.78;;;;;;;;;;5061519;28;20378;-91
2022/06/21 11:47:14;;;;;;;4.10;3.70;;;;;;;;;;5067765;28;20907;-91
2022/06/21 11:49:49;;;;;;;6.10;4.10;;;;;;;;;;5072603;28;20454;-89
2022/06/21 11:52:31;;;;;;;6.83;3.53;;;;;;;;;;5072879;28;20380;-91
2022/06/21 11:55:10;;;;;;;4.63;4.18;;;;;;;;;;5064246;28;20389;-90
2022/06/21 11:58:02;;;;;;;4.35;3.95;;;;;;;;;;5072938;28;20376;-91
2022/06/21 12:00:35;;;;;;;3.95;3.63;;;;;;;;;;5071825;28;20548;-91
2022/06/21 12:03:02;;;;;;;3.90;3.53;;;;;;;;;;5062217;28;20415;-92
2022/06/21 12:05:34;;;;;;;5.30;4.07;;;;;;;;;;5075863;28;20384;-88
2022/06/21 12:08:08;;;;;;;4.10;3.63;;;;;;;;;;5071447;28;20376;-91
2022/06/21 12:10:44;;;;;;;4.95;4.55;;;;;;;;;;5072873;28;20407;-91
2022/06/21 12:13:19;;;;;;;4.73;4.33;;;;;;;;;;5055411;28;20384;-91
2022/06/21 12:16:04;;;;;;;4.13;3.65;;;;;;;;;;5064161;28;20467;-90
2022/06/21 12:18:32;;;;;;;6.30;3.70;;;;;;;;;;5072128;28;20390;-91
2022/06/21 12:21:10;;;;;;;5.20;3.75;;;;;;;;;;5069189;28;20470;-92
2022/06/21 12:23:44;;;;;;;5.20;3.53;;;;;;;;;;5057451;28;20424;-90
2022/06/21 12:26:13;;;;;;;4.13;3.63;;;;;;;;;;5064400;28;20862;-91
2022/06/21 12:28:40;;;;;;;6.47;4.50;;;;;;;;;;5059789;28;20468;-92
2022/06/21 12:31:17;;;;;;;5.35;4.88;;;;;;;;;;5073688;28;20378;-90
2022/06/21 12:33:45;;;;;;;4.50;3.72;;;;;;;;;;5063771;28;20390;-90
2022/06/21 12:36:20;;;;;;;5.13;4.28;;;;;;;;;;5070857;28;20375;-92
2022/06/21 12:38:49;;;;;;;4.75;4.13;;;;;;;;;;5076450;28;20368;-92
2022/06/21 12:41:33;;;;;;;7.97;4.47;;;;;;;;;;5067731;28;20415;-91
2022/06/21 12:43:59;;;;;;;4.38;3.92;;;;;;;;;;5061895;28;20927;-91
2022/06/21 12:46:33;;;;;;;4.72;3.80;;;;;;;;;;5072744;28;20421;-91
2022/06/21 12:49:18;;;;;;;5.18;3.70;;;;;;;;;;5075970;28;20380;-91
2022/06/21 12:51:56;;;;;;;5.15;3.65;;;;;;;;;;5069516;28;20772;-86
2022/06/21 12:54:40;;;;;;;4.10;3.70;;;;;;;;;;5073255;28;20415;-85
2022/06/21 12:57:25;;;;;;;5.87;4.30;;;;;;;;;;5071386;28;20383;-86
2022/06/21 13:00:03;;;;;;;4.72;3.53;;;;;;;;;;5068906;28;20398;-86
2022/06/21 13:02:38;;;;;;;4.93;3.60;;;;;;;;;;5073389;28;20438;-86
2022/06/21 13:05:07;;;;;;;5.88;3.80;;;;;;;;;;5071429;28;20374;-86
2022/06/21 13:07:56;;;;;;;3.85;3.55;;;;;;;;;;5064477;28;20729;-87
2022/06/21 13:10:35;;;;;;;6.50;3.93;;;;;;;;;;5054483;28;20420;-88
2022/06/21 13:13:10;;;;;;;4.90;4.07;;;;;;;;;;5072449;28;20521;-87
2022/06/21 13:15:55;;;;;;;6.35;3.88;;;;;;;;;;5065129;28;20385;-87
2022/06/21 13:18:39;;;;;;;3.90;3.60;;;;;;;;;;5072652;28;20375;-87
2022/06/21 13:21:08;;;;;;;4.00;3.65;;;;;;;;;;5071392;28;20414;-86
2022/06/21 13:23:34;;;;;;;6.35;4.13;;;;;;;;;;5073840;28;20461;-87
2022/06/21 13:26:00;;;;;;;5.20;4.00;;;;;;;;;;5069258;28;20858;-88
2022/06/21 13:28:47;;;;;;;4.32;3.92;;;;;;;;;;5064968;28;20384;-90
2022/06/21 13:31:16;;;;;;;5.18;4.00;;;;;;;;;;5064492;28;20886;-92
2022/06/21 13:33:59;;;;;;;4.45;3.90;;;;;;;;;;5068156;28;20794;-92
2022/06/21 13:36:40;;;;;;;4.43;3.70;;;;;;;;;;5057103;28;20393;-91
2022/06/21 13:39:26;;;;;;;4.10;3.80;;;;;;;;;;5064022;28;20380;-90
2022/06/21 13:44:43;;;;;;;6.10;4.10;;;;;;;;;;5075179;28;20386;-91
2022/06/21 13:47:14;;;;;;;5.75;4.03;;;;;;;;;;5074917;28;20378;-90
2022/06/21 13:49:46;;;;;;;5.65;4.00;;;;;;;;;;5072486;28;20429;-90
2022/06/21 13:52:18;;;;;;;4.20;3.80;;;;;;;;;;5070772;28;20392;-91
2022/06/21 13:54:53;;;;;;;4.70;4.22;;;;;;;;;;5069360;28;20385;-91
2022/06/21 13:57:39;;;;;;;5.45;4.47;;;;;;;;;;5072139;28;20381;-92
2022/06/21 14:00:06;;;;;;;7.32;4.30;;;;;;;;;;5058186;28;20422;-93
2022/06/21 14:02:38;;;;;;;7.97;3.95;;;;;;;;;;5072766;28;20408;-91
2022/06/21 14:05:14;;;;;;;9.70;5.25;;;;;;;;;;5061017;28;20386;-91
2022/06/21 14:07:51;;;;;;;5.03;4.45;;;;;;;;;;5059076;28;20383;-91
2022/06/21 14:10:21;;;;;;;6.00;4.20;;;;;;;;;;5066808;28;20385;-90
2022/06/21 14:13:16;;;;;;;5.13;4.10;;;;;;;;;;5068211;28;20743;-91
2022/06/21 14:15:51;;;;;;;5.05;3.72;;;;;;;;;;5057816;28;20385;-91
2022/06/21 14:18:26;;;;;;;7.88;3.60;;;;;;;;;;5058091;28;20379;-91
2022/06/21 14:20:52;;;;;;;6.93;3.80;;;;;;;;;;5070277;28;20394;-92
2022/06/21 14:23:36;;;;;;;5.10;4.07;;;;;;;;;;5070846;28;20400;-91
2022/06/21 14:26:25;;;;;;;9.38;4.07;;;;;;;;;;5067064;28;20889;-91
2022/06/21 14:28:55;;;;;;;6.78;4.30;;;;;;;;;;5074101;28;20383;-90
2022/06/21 14:31:26;;;;;;;7.65;3.67;;;;;;;;;;5054995;28;20435;-91
2022/06/21 14:34:18;;;;;;;5.32;2.90;;;;;;;;;;5067633;28;20398;-91
2022/06/21 14:36:51;;;;;;;4.90;3.72;;;;;;;;;;5073921;28;20380;-87
2022/06/21 14:39:20;;;;;;;6.30;3.20;;;;;;;;;;5069017;28;20399;-86
2022/06/21 14:41:56;;;;;;;6.93;3.40;;;;;;;;;;5073439;28;20492;-88
2022/06/21 14:44:39;;;;;;;4.68;3.08;;;;;;;;;;5069106;28;20399;-87
2022/06/21 14:47:14;;;;;;;5.53;2.88;;;;;;;;;;5069376;28;20380;-86
2022/06/21 14:49:55;;;;;;;5.50;3.25;;;;;;;;;;5061511;28;20445;-87
2022/06/21 14:52:27;;;;;;;5.28;3.10;;;;;;;;;;5062302;28;20372;-86
2022/06/21 14:55:03;;;;;;;6.47;3.42;;;;;;;;;;5066733;28;20457;-86
2022/06/21 14:57:34;;;;;;;5.55;3.17;;;;;;;;;;5070908;28;20380;-88
2022/06/21 15:00:00;;;;;;;5.22;3.00;;;;;;;;;;5069330;28;20468;-88
2022/06/21 15:02:45;;;;;;;7.82;3.30;;;;;;;;;;5056093;28;20917;-87
2022/06/21 15:05:32;;;;;;;4.50;3.10;;;;;;;;;;5063212;28;20573;-88
2022/06/21 15:07:58;;;;;;;8.10;3.73;;;;;;;;;;5064678;28;20388;-88
2022/06/21 15:10:34;;;;;;;7.83;4.93;;;;;;;;;;5076543;28;20467;-88
2022/06/21 15:13:05;;;;;;;5.95;3.75;;;;;;;;;;5072736;28;20380;-88
2022/06/21 15:15:36;;;;;;;7.60;3.20;;;;;;;;;;5071638;28;20412;-88
2022/06/21 15:18:07;;;;;;;6.60;3.13;;;;;;;;;;5072634;28;20372;-87
2022/06/21 15:20:36;;;;;;;5.00;3.08;;;;;;;;;;5068116;28;20379;-88
2022/06/21 15:23:08;;;;;;;5.60;2.90;;;;;;;;;;5070925;28;20410;-87
2022/06/21 15:25:40;;;;;;;11.75;5.20;;;;;;;;;;5069768;28;20425;-88
2022/06/21 15:28:27;;;;;;;7.20;4.22;;;;;;;;;;5067624;28;20378;-88
2022/06/21 15:31:10;;;;;;;5.75;3.00;;;;;;;;;;5062843;28;20380;-88
2022/06/21 15:33:51;;;;;;;4.43;3.10;;;;;;;;;;5062005;28;20380;-87
2022/06/21 15:36:18;;;;;;;5.22;3.50;;;;;;;;;;5060656;28;20396;-88
2022/06/21 15:39:19;;;;;;;6.75;3.20;;;;;;;;;;5071577;28;20425;-88